Time;durP1;ratioP1;P1;durP2;ratioP2;P2;SDS_P1;SDS_P2;PMS_P1;PMS_P2;Temp;Humidity;BMP_temperature;BMP_pressure;BME280_temperature;BME280_humidity;BME280_pressure;Samples;Min_cycle;Max_cycle;Signal;HPM_P1;HPM_P2
2021/06/15 00:02:16;;;;;;;18.23;11.70;;;28.00;62.00;;;;;;4956066;28;20031;-73
2021/06/15 00:04:42;;;;;;;14.73;11.90;;;27.90;62.20;;;;;;4956189;28;20032;-73
2021/06/15 00:07:08;;;;;;;14.27;12.05;;;27.80;62.40;;;;;;4954699;29;20582;-72
2021/06/15 00:09:33;;;;;;;17.92;13.13;;;27.80;62.60;;;;;;4956045;28;20020;-73
2021/06/15 00:12:01;;;;;;;14.45;11.32;;;27.70;62.90;;;;;;4955722;28;20492;-73
2021/06/15 00:14:26;;;;;;;14.68;11.93;;;27.60;63.20;;;;;;4956079;28;20547;-72
2021/06/15 00:16:53;;;;;;;14.32;12.68;;;27.50;63.20;;;;;;4954396;29;20075;-73
2021/06/15 00:19:19;;;;;;;16.38;12.07;;;27.30;63.60;;;;;;4955620;28;20036;-72
2021/06/15 00:21:44;;;;;;;13.65;11.10;;;27.40;63.80;;;;;;4955559;28;20358;-72
2021/06/15 00:24:10;;;;;;;15.73;12.48;;;27.30;63.70;;;;;;4955662;28;20024;-73
2021/06/15 00:26:37;;;;;;;16.85;12.27;;;27.50;63.60;;;;;;4955632;28;20436;-73
2021/06/15 00:29:03;;;;;;;16.15;12.50;;;27.50;63.40;;;;;;4938609;29;20086;-73
2021/06/15 00:31:29;;;;;;;16.42;12.00;;;27.60;63.50;;;;;;4955779;28;20031;-72
2021/06/15 00:33:55;;;;;;;19.00;11.55;;;27.70;63.80;;;;;;4955645;28;20047;-72
2021/06/15 00:36:21;;;;;;;15.10;12.43;;;27.80;62.90;;;;;;4953917;28;20031;-73
2021/06/15 00:38:46;;;;;;;16.27;11.85;;;27.80;62.70;;;;;;4955573;28;20035;-73
2021/06/15 00:41:12;;;;;;;14.75;12.23;;;27.80;62.50;;;;;;4955623;28;20023;-73
2021/06/15 00:43:39;;;;;;;15.65;12.50;;;27.90;62.50;;;;;;4955561;28;20042;-72
2021/06/15 00:46:05;;;;;;;15.52;12.90;;;27.90;62.50;;;;;;4955351;28;20476;-73
2021/06/15 00:48:34;;;;;;;17.40;12.55;;;27.70;62.60;;;;;;4955377;28;20030;-76
2021/06/15 00:51:00;;;;;;;19.27;11.73;;;27.70;62.70;;;;;;4954087;29;20037;-73
2021/06/15 00:53:27;;;;;;;18.10;12.38;;;27.60;63.00;;;;;;4955650;28;20063;-74
2021/06/15 00:55:54;;;;;;;15.55;11.65;;;27.50;63.00;;;;;;4955373;28;20507;-73
2021/06/15 00:58:20;;;;;;;18.85;11.50;;;27.30;63.80;;;;;;4955473;28;20039;-72
2021/06/15 01:00:47;;;;;;;20.30;11.50;;;27.30;63.70;;;;;;4955387;28;20031;-73
2021/06/15 01:03:16;;;;;;;16.67;12.45;;;27.20;63.60;;;;;;4955348;28;20550;-72
2021/06/15 01:05:43;;;;;;;15.77;12.23;;;27.10;64.10;;;;;;4955184;28;20468;-71
2021/06/15 01:08:42;;;;;;;18.70;12.63;;;27.20;64.00;;;;;;4955125;28;20162;-74
2021/06/15 01:11:56;;;;;;;15.85;12.13;;;27.10;65.20;;;;;;4955010;28;20563;-73
2021/06/15 01:14:46;;;;;;;14.50;12.18;;;26.90;65.50;;;;;;4914889;29;20032;-72
2021/06/15 01:17:16;;;;;;;16.02;12.57;;;26.90;65.90;;;;;;4914980;29;20076;-73
2021/06/15 01:19:50;;;;;;;17.92;12.48;;;27.10;64.50;;;;;;4941626;28;20577;-72
2021/06/15 01:23:00;;;;;;;15.23;11.77;;;27.20;65.30;;;;;;4955346;28;20485;-72
2021/06/15 01:25:57;;;;;;;14.50;11.32;;;27.10;65.30;;;;;;4915111;29;20028;-72
2021/06/15 01:28:31;;;;;;;18.02;12.32;;;27.10;64.10;;;;;;4915536;29;20029;-74
2021/06/15 01:31:06;;;;;;;13.70;10.63;;;27.00;64.40;;;;;;4938399;28;20416;-74
2021/06/15 01:33:40;;;;;;;12.95;10.20;;;26.80;65.40;;;;;;4958163;28;20053;-73
2021/06/15 01:36:08;;;;;;;11.88;10.63;;;26.80;64.70;;;;;;4958650;28;20062;-72
2021/06/15 01:38:49;;;;;;;14.05;10.32;;;26.90;64.50;;;;;;4958591;28;20024;-72
2021/06/15 01:41:26;;;;;;;12.15;9.75;;;26.80;64.50;;;;;;4958815;28;20512;-72
2021/06/15 01:43:57;;;;;;;16.83;9.70;;;26.90;64.20;;;;;;4958517;28;20105;-73
2021/06/15 01:46:26;;;;;;;14.20;10.13;;;26.90;64.00;;;;;;4958363;28;20030;-71
2021/06/15 01:49:04;;;;;;;11.48;9.38;;;27.00;63.70;;;;;;4957317;29;20083;-71
2021/06/15 01:51:32;;;;;;;11.13;9.20;;;26.90;64.80;;;;;;4957072;29;20086;-73
2021/06/15 01:54:09;;;;;;;10.98;9.65;;;26.70;64.20;;;;;;4958417;28;20016;-73
2021/06/15 01:56:42;;;;;;;14.88;10.63;;;26.60;64.30;;;;;;4956701;28;20476;-73
2021/06/15 01:59:10;;;;;;;13.75;10.32;;;26.80;65.20;;;;;;4958367;28;20148;-72
2021/06/15 02:01:39;;;;;;;13.98;11.05;;;26.70;64.30;;;;;;4958503;28;20033;-72
2021/06/15 02:04:06;;;;;;;14.38;10.05;;;26.60;64.20;;;;;;4958275;28;20031;-73
2021/06/15 02:06:34;;;;;;;11.20;10.07;;;26.30;64.90;;;;;;4958061;28;20051;-73
2021/06/15 02:09:04;;;;;;;11.63;9.68;;;26.30;64.90;;;;;;4958071;28;20403;-73
2021/06/15 02:11:32;;;;;;;12.60;10.57;;;26.20;65.20;;;;;;4956768;29;20070;-72
2021/06/15 02:14:01;;;;;;;15.15;11.20;;;26.00;65.50;;;;;;4958165;28;20031;-72
2021/06/15 02:16:28;;;;;;;11.50;10.30;;;25.90;65.90;;;;;;4958063;28;20032;-73
2021/06/15 02:18:56;;;;;;;12.75;10.40;;;25.60;66.40;;;;;;4956514;29;20038;-72
2021/06/15 02:21:23;;;;;;;11.50;10.32;;;25.40;67.10;;;;;;4958032;28;20023;-72
2021/06/15 02:23:54;;;;;;;13.48;10.00;;;25.40;67.40;;;;;;4957980;28;20070;-73
2021/06/15 02:26:24;;;;;;;14.63;10.38;;;25.60;67.30;;;;;;4957623;28;20038;-72
2021/06/15 02:28:50;;;;;;;13.13;10.80;;;25.70;66.80;;;;;;4957866;28;20027;-73
2021/06/15 02:31:23;;;;;;;14.73;11.68;;;25.70;67.00;;;;;;4957795;28;20035;-73
2021/06/15 02:33:53;;;;;;;13.63;11.00;;;25.70;66.80;;;;;;4957803;28;20030;-73
2021/06/15 02:36:29;;;;;;;11.38;10.00;;;25.80;66.60;;;;;;4957479;28;20038;-73
2021/06/15 02:39:00;;;;;;;13.00;10.77;;;25.80;66.90;;;;;;4956316;29;20373;-73
2021/06/15 02:41:29;;;;;;;14.57;10.48;;;25.90;66.40;;;;;;4958193;28;20028;-73
2021/06/15 02:44:01;;;;;;;13.35;10.65;;;25.90;66.10;;;;;;4956149;28;20027;-74
2021/06/15 02:46:30;;;;;;;13.75;9.60;;;25.90;66.30;;;;;;4957422;28;20469;-73
2021/06/15 02:48:59;;;;;;;13.60;10.07;;;25.90;66.10;;;;;;4957183;28;20047;-73
2021/06/15 02:51:29;;;;;;;10.65;9.30;;;26.00;65.90;;;;;;4957259;28;20456;-72
2021/06/15 02:54:08;;;;;;;11.40;9.48;;;25.90;65.70;;;;;;4957388;28;20058;-73
2021/06/15 02:56:40;;;;;;;13.93;9.63;;;25.90;65.60;;;;;;4955756;29;20106;-71
2021/06/15 02:59:06;;;;;;;12.88;9.07;;;25.80;65.40;;;;;;4957521;28;20494;-73
2021/06/15 03:01:32;;;;;;;10.65;8.82;;;25.60;65.60;;;;;;4955971;28;20019;-73
2021/06/15 03:03:58;;;;;;;10.35;8.55;;;25.70;65.80;;;;;;4957093;28;20027;-73
2021/06/15 03:06:24;;;;;;;10.35;8.07;;;25.80;65.40;;;;;;4956987;28;20051;-72
2021/06/15 03:08:49;;;;;;;10.50;8.43;;;25.70;65.20;;;;;;4957326;28;20031;-73
2021/06/15 03:11:21;;;;;;;12.05;7.75;;;25.80;64.90;;;;;;4956896;28;20047;-75
2021/06/15 03:13:54;;;;;;;8.32;7.20;;;25.90;64.30;;;;;;4957108;28;20027;-73
2021/06/15 03:16:26;;;;;;;8.77;6.95;;;26.00;63.90;;;;;;4956684;28;20027;-74
2021/06/15 03:19:02;;;;;;;7.93;6.75;;;26.20;63.20;;;;;;4955450;29;20039;-73
2021/06/15 03:21:32;;;;;;;10.45;7.00;;;26.30;63.10;;;;;;4956821;28;20055;-74
2021/06/15 03:24:07;;;;;;;12.70;6.95;;;26.20;62.40;;;;;;4956865;28;20032;-74
2021/06/15 03:26:54;;;;;;;11.35;7.15;;;26.20;61.80;;;;;;4956782;28;20023;-74
2021/06/15 03:29:24;;;;;;;10.18;7.45;;;25.90;61.60;;;;;;4956737;28;20038;-73
2021/06/15 03:31:52;;;;;;;11.30;7.32;;;25.70;61.90;;;;;;4957121;28;20422;-73
2021/06/15 03:34:24;;;;;;;7.82;6.22;;;25.70;62.20;;;;;;4956570;28;20544;-73
2021/06/15 03:36:52;;;;;;;9.57;6.10;;;25.50;62.00;;;;;;4956478;28;20089;-75
2021/06/15 03:39:20;;;;;;;7.82;6.53;;;25.50;61.90;;;;;;4956276;28;20054;-72
2021/06/15 03:41:46;;;;;;;8.85;6.68;;;25.70;61.60;;;;;;4956564;28;20130;-74
2021/06/15 03:44:13;;;;;;;9.10;6.10;;;25.90;61.10;;;;;;4956424;28;20389;-74
2021/06/15 03:46:41;;;;;;;7.55;6.15;;;25.80;60.70;;;;;;4956107;28;20043;-72
2021/06/15 03:49:10;;;;;;;9.70;6.30;;;25.80;60.30;;;;;;4956161;28;20032;-75
2021/06/15 03:51:41;;;;;;;10.38;5.82;;;25.90;60.50;;;;;;4955940;28;20030;-74
2021/06/15 03:54:10;;;;;;;8.25;5.63;;;26.00;59.90;;;;;;4955984;28;20071;-78
2021/06/15 03:56:42;;;;;;;10.70;6.10;;;26.10;59.50;;;;;;4955927;28;20038;-74
2021/06/15 03:59:10;;;;;;;8.10;6.20;;;25.90;59.40;;;;;;4956341;29;20577;-74
2021/06/15 04:01:39;;;;;;;12.73;6.10;;;25.70;59.70;;;;;;4954676;29;20031;-74
2021/06/15 04:04:08;;;;;;;10.38;5.90;;;25.60;59.90;;;;;;4955955;28;20047;-73
2021/06/15 04:06:46;;;;;;;10.13;6.50;;;25.70;59.90;;;;;;4956159;28;20031;-74
2021/06/15 04:09:13;;;;;;;8.90;5.68;;;25.60;59.70;;;;;;4955795;28;20033;-74
2021/06/15 04:11:40;;;;;;;6.80;5.55;;;25.50;59.70;;;;;;4954387;29;20062;-72
2021/06/15 04:14:09;;;;;;;10.65;5.53;;;25.40;59.70;;;;;;4954464;29;20039;-74
2021/06/15 04:16:36;;;;;;;11.45;5.93;;;25.50;59.60;;;;;;4955295;28;20067;-73
2021/06/15 04:19:04;;;;;;;9.20;5.68;;;25.70;58.90;;;;;;4955828;28;20531;-74
2021/06/15 04:21:33;;;;;;;9.80;6.25;;;25.60;59.00;;;;;;4955758;28;20034;-75
2021/06/15 04:24:06;;;;;;;10.65;6.43;;;25.90;58.70;;;;;;4955685;28;20082;-74
2021/06/15 04:26:35;;;;;;;8.90;6.30;;;25.80;58.40;;;;;;4954186;29;20107;-76
2021/06/15 04:29:04;;;;;;;10.43;5.85;;;25.70;58.60;;;;;;4955430;28;20023;-75
2021/06/15 04:31:31;;;;;;;11.30;6.22;;;25.70;58.40;;;;;;4954459;29;20059;-76
2021/06/15 04:33:59;;;;;;;8.95;6.20;;;25.70;58.70;;;;;;4954913;29;20039;-74
2021/06/15 04:36:27;;;;;;;7.15;5.68;;;25.50;58.70;;;;;;4955977;28;20031;-73
2021/06/15 04:39:03;;;;;;;11.73;6.75;;;25.70;58.70;;;;;;4955492;28;20037;-73
2021/06/15 04:41:30;;;;;;;8.60;5.80;;;25.70;58.30;;;;;;4955504;28;20077;-73
2021/06/15 04:44:02;;;;;;;9.52;5.85;;;25.60;58.50;;;;;;4955660;28;20043;-74
2021/06/15 04:46:30;;;;;;;12.65;6.90;;;25.70;58.50;;;;;;4955213;28;20019;-74
2021/06/15 04:49:03;;;;;;;10.23;5.75;;;25.50;58.80;;;;;;4955537;28;20461;-74
2021/06/15 04:51:31;;;;;;;7.30;6.10;;;25.60;58.90;;;;;;4956277;28;20038;-74
2021/06/15 04:53:59;;;;;;;10.63;6.53;;;25.70;58.60;;;;;;4955150;28;20047;-74
2021/06/15 04:56:26;;;;;;;8.40;6.22;;;25.60;58.50;;;;;;4954989;28;20046;-73
2021/06/15 04:58:53;;;;;;;9.85;6.70;;;25.60;58.50;;;;;;4955214;28;20023;-75
2021/06/15 05:01:21;;;;;;;8.73;6.28;;;25.60;58.20;;;;;;4955328;28;20023;-88
2021/06/15 05:03:47;;;;;;;9.43;6.35;;;25.60;58.30;;;;;;4955117;28;20113;-74
2021/06/15 05:06:14;;;;;;;10.00;6.80;;;25.60;58.40;;;;;;4956144;28;20028;-73
2021/06/15 05:08:53;;;;;;;11.43;7.00;;;25.70;58.10;;;;;;4958894;28;20054;-73
2021/06/15 05:11:19;;;;;;;10.23;7.18;;;25.90;57.70;;;;;;4958703;28;20078;-75
2021/06/15 05:13:46;;;;;;;9.75;7.03;;;26.00;57.90;;;;;;4958915;28;20027;-73
2021/06/15 05:16:13;;;;;;;11.18;7.15;;;26.10;57.70;;;;;;4958392;28;20031;-74
2021/06/15 05:18:39;;;;;;;9.77;7.00;;;26.40;57.40;;;;;;4957430;29;20074;-75
2021/06/15 05:21:16;;;;;;;12.13;6.63;;;26.70;57.00;;;;;;4957544;29;20043;-74
2021/06/15 05:23:57;;;;;;;9.85;7.57;;;27.20;56.10;;;;;;4958949;28;20388;-74
2021/06/15 05:26:23;;;;;;;9.15;7.10;;;27.80;54.20;;;;;;4958799;28;20392;-73
2021/06/15 05:28:51;;;;;;;10.65;7.13;;;28.10;54.30;;;;;;4958792;28;20503;-74
2021/06/15 05:31:16;;;;;;;23.27;7.82;;;28.20;53.80;;;;;;4958671;28;20023;-74
2021/06/15 05:33:42;;;;;;;13.73;7.07;;;28.60;53.30;;;;;;4958524;28;20034;-75
2021/06/15 05:36:08;;;;;;;9.77;6.72;;;29.10;52.60;;;;;;4958423;28;20143;-74
2021/06/15 05:38:35;;;;;;;9.98;6.82;;;29.30;51.80;;;;;;4958179;28;20033;-74
2021/06/15 05:41:01;;;;;;;11.73;6.60;;;29.50;51.80;;;;;;4958501;28;20024;-75
2021/06/15 05:43:26;;;;;;;10.02;6.25;;;29.70;51.50;;;;;;4958144;28;20385;-74
2021/06/15 05:45:52;;;;;;;11.38;7.20;;;29.90;50.90;;;;;;4958511;28;20023;-75
2021/06/15 05:48:18;;;;;;;12.63;6.75;;;30.20;50.30;;;;;;4957883;28;20028;-75
2021/06/15 05:50:44;;;;;;;9.43;6.30;;;30.40;50.40;;;;;;4958180;28;20114;-73
2021/06/15 05:53:10;;;;;;;10.40;6.20;;;30.50;50.20;;;;;;4957986;28;20056;-72
2021/06/15 05:55:36;;;;;;;10.57;6.82;;;30.80;49.80;;;;;;4957466;28;20094;-69
2021/06/15 05:58:02;;;;;;;10.82;6.82;;;31.00;49.70;;;;;;4949178;28;20071;-77
2021/06/15 06:00:28;;;;;;;14.50;7.07;;;31.00;50.20;;;;;;4939129;29;20389;-75
2021/06/15 06:02:54;;;;;;;12.43;7.40;;;31.10;49.80;;;;;;4938428;29;20507;-71
2021/06/15 06:08:04;;;;;;;10.75;6.70;;;31.50;49.20;;;;;;4951695;28;20024;-68
2021/06/15 06:10:30;;;;;;;11.65;8.20;;;31.70;48.60;;;;;;4946754;29;20064;-69
2021/06/15 06:12:57;;;;;;;11.45;7.38;;;31.80;49.00;;;;;;4947237;28;20110;-70
2021/06/15 06:15:23;;;;;;;13.30;7.65;;;31.80;49.40;;;;;;4948328;29;20032;-70
2021/06/15 06:17:49;;;;;;;13.40;7.55;;;31.90;49.90;;;;;;4942602;29;20032;-70
2021/06/15 06:20:17;;;;;;;18.75;7.63;;;32.00;49.30;;;;;;4938239;29;20055;-71
2021/06/15 06:22:44;;;;;;;14.18;7.55;;;31.90;49.60;;;;;;4957657;28;20091;-68
2021/06/15 06:25:15;;;;;;;12.60;7.47;;;32.00;49.70;;;;;;4957861;28;20035;-71
2021/06/15 06:27:41;;;;;;;15.05;7.28;;;32.00;49.50;;;;;;4961898;28;20500;-73
2021/06/15 06:30:08;;;;;;;11.75;6.90;;;32.10;49.60;;;;;;4943156;29;20030;-74
2021/06/15 06:32:35;;;;;;;13.48;7.70;;;32.30;49.50;;;;;;4940831;29;20476;-75
2021/06/15 06:35:02;;;;;;;20.92;8.05;;;32.30;49.70;;;;;;4956758;29;20082;-76
2021/06/15 06:37:30;;;;;;;14.63;6.80;;;32.40;49.40;;;;;;4957398;28;20102;-75
2021/06/15 06:39:56;;;;;;;15.70;7.38;;;32.40;50.00;;;;;;4950519;29;20063;-77
2021/06/15 06:42:22;;;;;;;12.38;6.95;;;32.50;49.00;;;;;;4955957;28;20023;-75
2021/06/15 06:44:48;;;;;;;12.80;6.93;;;32.40;50.90;;;;;;4946815;29;20055;-74
2021/06/15 06:47:13;;;;;;;11.85;6.60;;;32.40;49.30;;;;;;4957022;28;20027;-75
2021/06/15 06:49:39;;;;;;;15.23;6.63;;;32.40;49.40;;;;;;4956936;28;20515;-74
2021/06/15 06:52:05;;;;;;;12.25;6.05;;;32.50;49.30;;;;;;4956812;28;20042;-75
2021/06/15 06:54:31;;;;;;;16.83;7.00;;;32.60;48.80;;;;;;4957141;28;20031;-76
2021/06/15 06:56:56;;;;;;;13.05;6.72;;;32.60;48.90;;;;;;4955296;29;20091;-75
2021/06/15 06:59:22;;;;;;;13.07;6.93;;;32.70;49.10;;;;;;4957327;28;20102;-74
2021/06/15 07:01:48;;;;;;;15.95;5.68;;;32.70;48.90;;;;;;4956847;28;20035;-76
2021/06/15 07:04:14;;;;;;;9.90;4.43;;;32.70;48.70;;;;;;4954094;28;20082;-76
2021/06/15 07:06:39;;;;;;;12.23;5.50;;;32.70;48.00;;;;;;4956571;28;20065;-75
2021/06/15 07:09:05;;;;;;;9.80;4.85;;;32.80;47.60;;;;;;4956125;28;20078;-76
2021/06/15 07:11:31;;;;;;;14.48;4.90;;;32.70;47.70;;;;;;4956654;28;20055;-74
2021/06/15 07:13:57;;;;;;;8.75;4.90;;;32.80;47.10;;;;;;4956431;28;20469;-76
2021/06/15 07:16:22;;;;;;;10.30;4.43;;;32.90;46.20;;;;;;4954940;29;20035;-77
2021/06/15 07:18:49;;;;;;;12.23;3.97;;;32.90;45.60;;;;;;4956428;28;20480;-76
2021/06/15 07:21:15;;;;;;;11.50;3.97;;;32.70;45.00;;;;;;4956329;28;20055;-77
2021/06/15 07:23:41;;;;;;;10.40;4.07;;;32.70;44.40;;;;;;4956442;28;20058;-75
2021/06/15 07:26:07;;;;;;;9.07;3.70;;;32.80;44.10;;;;;;4956503;28;20031;-76
2021/06/15 07:28:33;;;;;;;10.38;4.13;;;32.80;44.10;;;;;;4956662;28;20034;-76
2021/06/15 07:31:00;;;;;;;8.27;3.95;;;32.60;43.80;;;;;;4955929;28;20035;-75
2021/06/15 07:33:27;;;;;;;19.10;5.15;;;32.60;44.20;;;;;;4956508;28;20072;-77
2021/06/15 07:35:53;;;;;;;8.57;4.03;;;32.70;44.00;;;;;;4955190;29;20121;-76
2021/06/15 07:38:19;;;;;;;10.70;4.20;;;32.70;44.10;;;;;;4956406;28;20031;-75
2021/06/15 07:40:45;;;;;;;10.77;4.40;;;32.60;44.10;;;;;;4955223;29;20089;-76
2021/06/15 07:43:12;;;;;;;11.95;4.00;;;32.60;44.20;;;;;;4954817;29;20031;-76
2021/06/15 07:45:39;;;;;;;9.50;3.70;;;32.40;44.10;;;;;;4956051;28;20034;-75
2021/06/15 07:48:05;;;;;;;10.50;3.92;;;32.40;44.50;;;;;;4956189;28;20042;-75
2021/06/15 07:50:31;;;;;;;9.18;3.70;;;32.50;44.30;;;;;;4956197;28;20071;-76
2021/06/15 07:52:57;;;;;;;9.90;3.97;;;32.40;44.30;;;;;;4956278;28;20022;-75
2021/06/15 07:55:23;;;;;;;11.70;4.45;;;32.40;44.00;;;;;;4956005;28;20035;-75
2021/06/15 07:57:49;;;;;;;8.50;4.15;;;32.50;44.10;;;;;;4954283;29;20051;-75
2021/06/15 08:00:17;;;;;;;11.77;3.90;;;32.60;44.30;;;;;;4956160;28;20023;-76
2021/06/15 08:02:44;;;;;;;8.45;4.40;;;32.40;44.10;;;;;;4956026;28;20480;-76
2021/06/15 08:05:11;;;;;;;14.32;4.40;;;32.40;44.20;;;;;;4955788;28;20023;-75
2021/06/15 08:07:37;;;;;;;14.65;4.22;;;32.30;44.60;;;;;;4955238;28;20031;-76
2021/06/15 08:10:04;;;;;;;13.55;4.65;;;32.20;44.70;;;;;;4954991;28;20024;-75
2021/06/15 08:12:30;;;;;;;18.70;5.68;;;32.10;44.70;;;;;;4953939;29;20035;-75
2021/06/15 08:14:56;;;;;;;8.93;4.28;;;32.10;45.00;;;;;;4955524;28;20082;-75
2021/06/15 08:17:22;;;;;;;9.90;4.35;;;32.00;45.50;;;;;;4955332;28;20341;-76
2021/06/15 08:19:47;;;;;;;11.88;4.28;;;32.00;45.00;;;;;;4955266;28;20031;-76
2021/06/15 08:22:13;;;;;;;11.05;4.07;;;31.90;45.30;;;;;;4955465;28;20027;-76
2021/06/15 08:24:40;;;;;;;9.43;3.80;;;31.80;44.90;;;;;;4955423;28;20027;-75
2021/06/15 08:27:06;;;;;;;12.82;4.30;;;31.70;45.10;;;;;;4953681;29;20061;-76
2021/06/15 08:29:32;;;;;;;8.38;4.85;;;31.60;45.30;;;;;;4955069;28;20048;-76
2021/06/15 08:31:58;;;;;;;9.15;4.20;;;31.50;45.40;;;;;;4955225;28;20039;-74
2021/06/15 08:34:23;;;;;;;12.05;4.13;;;31.40;45.40;;;;;;4955004;28;20038;-76
2021/06/15 08:36:49;;;;;;;8.40;4.45;;;31.20;45.70;;;;;;4954550;28;20039;-75
2021/06/15 08:39:15;;;;;;;10.10;4.65;;;31.00;45.90;;;;;;4953317;29;20035;-75
2021/06/15 08:41:41;;;;;;;9.98;4.40;;;30.80;46.30;;;;;;4954695;28;20034;-76
2021/06/15 08:44:08;;;;;;;12.35;4.28;;;30.60;46.60;;;;;;4954877;28;20118;-74
2021/06/15 08:46:35;;;;;;;11.02;4.20;;;30.40;46.90;;;;;;4953232;29;20484;-75
2021/06/15 08:49:03;;;;;;;8.50;4.03;;;30.30;47.10;;;;;;4954795;28;20019;-76
2021/06/15 08:51:29;;;;;;;9.38;4.50;;;30.40;47.20;;;;;;4955234;28;20035;-75
2021/06/15 08:54:03;;;;;;;9.00;3.80;;;30.50;46.80;;;;;;4954951;28;20072;-76
2021/06/15 08:56:32;;;;;;;9.80;3.88;;;30.50;46.10;;;;;;4953180;29;20031;-76
2021/06/15 08:58:58;;;;;;;8.57;3.72;;;30.60;46.10;;;;;;4954700;28;20480;-75
2021/06/15 09:01:23;;;;;;;10.00;3.92;;;30.50;45.40;;;;;;4954655;28;20038;-76
2021/06/15 09:03:53;;;;;;;7.72;3.13;;;30.50;45.20;;;;;;4954801;28;20023;-75
2021/06/15 09:06:20;;;;;;;8.35;3.28;;;30.50;44.90;;;;;;4954716;28;20023;-75
2021/06/15 09:08:58;;;;;;;6.28;3.00;;;30.40;44.90;;;;;;4954758;28;20554;-75
2021/06/15 09:11:27;;;;;;;7.60;3.50;;;30.40;44.20;;;;;;4954840;28;20043;-79
2021/06/15 09:13:54;;;;;;;8.00;3.58;;;30.50;44.50;;;;;;4954412;28;20433;-75
2021/06/15 09:16:23;;;;;;;9.10;3.20;;;30.50;44.30;;;;;;4954482;28;20469;-76
2021/06/15 09:18:51;;;;;;;9.25;3.20;;;30.60;44.30;;;;;;4954969;28;20122;-75
2021/06/15 09:21:29;;;;;;;10.90;3.15;;;30.50;43.80;;;;;;4954429;28;20569;-75
2021/06/15 09:24:07;;;;;;;10.85;3.30;;;30.50;44.10;;;;;;4954716;28;20027;-75
2021/06/15 09:26:51;;;;;;;9.55;3.38;;;30.40;43.40;;;;;;4954521;28;20461;-75
2021/06/15 09:29:17;;;;;;;12.90;3.67;;;30.30;43.50;;;;;;4954339;28;20452;-77
2021/06/15 09:31:54;;;;;;;10.60;3.05;;;30.20;43.20;;;;;;4953280;29;20489;-74
2021/06/15 09:34:20;;;;;;;8.43;3.05;;;30.10;43.40;;;;;;4954557;28;20039;-74
2021/06/15 09:36:46;;;;;;;5.68;2.80;;;30.10;43.70;;;;;;4954249;28;20413;-77
2021/06/15 09:39:12;;;;;;;6.35;2.95;;;30.20;43.50;;;;;;4954302;28;20028;-76
2021/06/15 09:41:41;;;;;;;5.72;2.83;;;30.10;43.70;;;;;;4954279;28;20066;-75
2021/06/15 09:44:17;;;;;;;8.40;3.15;;;30.10;43.40;;;;;;4954522;28;20043;-75
2021/06/15 09:46:51;;;;;;;9.90;3.45;;;29.90;42.90;;;;;;4954129;28;20031;-76
2021/06/15 09:49:44;;;;;;;13.32;3.13;;;29.90;43.20;;;;;;4954357;28;20047;-75
2021/06/15 09:52:29;;;;;;;10.15;3.10;;;29.90;43.50;;;;;;4954238;28;20031;-76
2021/06/15 09:55:00;;;;;;;9.65;3.60;;;29.80;44.60;;;;;;4958024;28;20345;-74
2021/06/15 09:57:39;;;;;;;7.97;3.15;;;29.80;44.40;;;;;;4957516;28;20035;-76
2021/06/15 10:00:15;;;;;;;11.52;3.08;;;29.80;46.60;;;;;;4957539;28;20111;-76
2021/06/15 10:02:53;;;;;;;9.65;3.60;;;29.80;44.40;;;;;;4957539;28;20093;-77
2021/06/15 10:05:31;;;;;;;10.15;2.80;;;29.80;45.30;;;;;;4957640;28;20420;-75
2021/06/15 10:08:00;;;;;;;10.73;3.92;;;29.70;44.60;;;;;;4957755;28;20094;-76
2021/06/15 10:10:29;;;;;;;6.07;2.80;;;29.90;45.40;;;;;;4956104;29;20079;-76
2021/06/15 10:12:57;;;;;;;5.63;2.67;;;30.00;45.70;;;;;;4956318;29;20097;-76
2021/06/15 10:15:24;;;;;;;5.60;2.78;;;30.10;45.30;;;;;;4940719;29;20165;-78
2021/06/15 10:17:50;;;;;;;8.07;3.55;;;30.10;45.30;;;;;;4957858;28;20038;-78
2021/06/15 10:20:20;;;;;;;7.57;3.30;;;30.20;45.60;;;;;;4957940;28;20414;-76
2021/06/15 10:22:47;;;;;;;8.27;3.33;;;30.20;46.10;;;;;;4956591;29;20031;-76
2021/06/15 10:25:14;;;;;;;9.35;3.40;;;30.20;45.80;;;;;;4957416;28;20054;-78
2021/06/15 10:27:41;;;;;;;12.55;3.40;;;30.10;45.90;;;;;;4957319;28;20023;-76
2021/06/15 10:30:08;;;;;;;10.85;3.53;;;30.00;46.50;;;;;;4957787;28;20171;-75
2021/06/15 10:32:34;;;;;;;7.93;3.53;;;30.00;46.40;;;;;;4956365;29;20024;-76
2021/06/15 10:35:08;;;;;;;7.00;3.50;;;29.90;46.50;;;;;;4957591;28;20030;-75
2021/06/15 10:37:35;;;;;;;10.27;3.47;;;29.80;46.50;;;;;;4957073;28;20046;-74
2021/06/15 10:40:12;;;;;;;9.52;4.22;;;29.70;47.00;;;;;;4956095;29;20028;-76
2021/06/15 10:42:38;;;;;;;10.63;3.65;;;29.80;46.00;;;;;;4957424;28;20027;-75
2021/06/15 10:45:17;;;;;;;9.98;3.83;;;29.60;47.10;;;;;;4957398;28;20054;-76
2021/06/15 10:48:04;;;;;;;7.75;3.20;;;29.50;47.10;;;;;;4957173;28;20050;-75
2021/06/15 10:50:45;;;;;;;7.55;3.35;;;29.50;46.20;;;;;;4957397;28;20031;-76
2021/06/15 10:53:13;;;;;;;8.20;3.40;;;29.40;46.20;;;;;;4955850;29;20469;-77
2021/06/15 10:56:09;;;;;;;8.68;3.10;;;29.50;47.50;;;;;;4957506;28;20027;-75
2021/06/15 10:58:35;;;;;;;8.73;3.78;;;29.50;47.20;;;;;;4959946;28;20043;-77
2021/06/15 11:01:31;;;;;;;8.27;3.83;;;29.60;47.40;;;;;;4957165;28;20094;-77
2021/06/15 11:03:59;;;;;;;7.80;3.33;;;29.80;46.30;;;;;;4956786;28;20027;-74
2021/06/15 11:06:29;;;;;;;5.70;2.80;;;29.90;46.40;;;;;;4956784;28;20039;-76
2021/06/15 11:09:09;;;;;;;8.05;3.53;;;29.90;46.90;;;;;;4956740;28;20473;-75
2021/06/15 11:11:35;;;;;;;8.73;3.78;;;30.00;46.80;;;;;;4956934;28;20058;-75
2021/06/15 11:14:07;;;;;;;7.55;3.30;;;29.80;47.00;;;;;;4956836;28;20039;-75
2021/06/15 11:16:44;;;;;;;7.60;3.35;;;29.90;47.10;;;;;;4957224;28;20027;-75
2021/06/15 11:19:12;;;;;;;9.93;3.40;;;30.00;46.30;;;;;;4958331;28;20054;-76
2021/06/15 11:21:45;;;;;;;8.07;3.35;;;30.00;46.30;;;;;;4963273;28;20047;-75
2021/06/15 11:24:21;;;;;;;9.02;3.42;;;29.90;46.10;;;;;;4960437;28;20125;-77
2021/06/15 11:27:29;;;;;;;9.93;4.25;;;30.00;47.10;;;;;;4958717;28;20035;-76
2021/06/15 11:30:17;;;;;;;8.20;3.72;;;30.20;46.20;;;;;;4919212;28;20046;-74
2021/06/15 11:33:05;;;;;;;8.48;3.80;;;30.40;47.00;;;;;;4958385;28;20039;-75
2021/06/15 11:35:39;;;;;;;11.80;3.60;;;30.50;46.10;;;;;;4956168;28;20085;-75
2021/06/15 11:38:14;;;;;;;8.75;3.15;;;30.50;46.50;;;;;;4956263;28;20031;-75
2021/06/15 11:40:42;;;;;;;8.10;3.60;;;30.50;46.50;;;;;;4956132;28;20020;-78
2021/06/15 11:43:08;;;;;;;14.45;4.07;;;30.60;46.20;;;;;;4956178;28;20433;-75
2021/06/15 11:45:43;;;;;;;9.50;3.63;;;30.60;46.00;;;;;;4955740;28;20481;-76
2021/06/15 11:48:19;;;;;;;7.88;3.88;;;30.40;45.00;;;;;;4954615;29;20392;-76
2021/06/15 11:50:53;;;;;;;6.28;3.15;;;30.40;48.40;;;;;;4955708;28;20038;-76
2021/06/15 11:53:19;;;;;;;;;;;30.40;46.20;;;;;;4956401;28;20034;-75
2021/06/15 11:55:55;;;;;;;8.57;3.47;;;30.60;45.80;;;;;;4955980;28;20031;-76
2021/06/15 11:58:31;;;;;;;8.48;3.35;;;30.50;45.80;;;;;;4956123;28;20070;-76
2021/06/15 12:01:07;;;;;;;8.52;3.28;;;30.50;44.90;;;;;;4954604;29;20062;-78
2021/06/15 12:03:41;;;;;;;9.70;3.55;;;30.40;44.80;;;;;;4954449;29;20102;-75
2021/06/15 12:06:09;;;;;;;9.55;3.65;;;30.40;45.70;;;;;;4955767;28;20027;-75
2021/06/15 12:08:36;;;;;;;8.13;3.50;;;30.50;45.90;;;;;;4955432;28;20142;-76
2021/06/15 12:11:05;;;;;;;7.85;3.42;;;30.60;45.60;;;;;;4954192;29;20449;-77
2021/06/15 12:13:33;;;;;;;8.93;3.15;;;30.70;45.30;;;;;;4955614;28;20024;-76
2021/06/15 12:16:04;;;;;;;8.65;3.38;;;30.70;45.20;;;;;;4955300;28;20476;-76
2021/06/15 12:18:30;;;;;;;6.60;3.10;;;30.80;44.80;;;;;;4954422;29;20380;-75
2021/06/15 12:21:05;;;;;;;12.63;3.33;;;30.70;45.20;;;;;;4955856;28;20155;-75
2021/06/15 12:23:38;;;;;;;6.75;3.15;;;30.70;45.40;;;;;;4955759;28;20020;-75
2021/06/15 12:26:06;;;;;;;6.07;3.30;;;30.80;45.40;;;;;;4955848;28;20114;-75
2021/06/15 12:28:33;;;;;;;11.32;3.22;;;30.80;44.50;;;;;;4955671;28;20030;-76
2021/06/15 12:31:11;;;;;;;9.02;2.80;;;30.70;45.40;;;;;;4955428;28;20388;-75
2021/06/15 12:33:39;;;;;;;6.35;3.05;;;30.80;44.60;;;;;;4955364;28;20432;-76
2021/06/15 12:36:11;;;;;;;7.80;3.20;;;30.70;45.00;;;;;;4953900;29;20027;-76
2021/06/15 12:38:38;;;;;;;5.63;3.17;;;30.60;45.40;;;;;;4955653;28;20433;-76
2021/06/15 12:41:14;;;;;;;8.02;3.30;;;30.70;45.70;;;;;;4955235;28;20066;-76
2021/06/15 12:43:40;;;;;;;7.30;3.45;;;30.80;45.20;;;;;;4955002;29;20033;-75
2021/06/15 12:46:10;;;;;;;7.63;3.22;;;31.00;45.60;;;;;;4955015;28;20026;-75
2021/06/15 12:48:44;;;;;;;9.75;3.13;;;31.10;45.50;;;;;;4953569;29;20555;-76
2021/06/15 12:51:12;;;;;;;7.28;3.25;;;31.20;45.20;;;;;;4954985;28;20019;-75
2021/06/15 12:53:40;;;;;;;8.43;3.38;;;31.30;44.90;;;;;;4954871;28;20027;-75
2021/06/15 12:56:18;;;;;;;6.88;2.92;;;31.10;44.70;;;;;;4955009;28;20023;-76
2021/06/15 12:58:45;;;;;;;7.47;3.20;;;30.90;45.00;;;;;;4954894;28;20065;-75